sensor_id;sensor_type;location;lat;lon;timestamp;P1;durP1;ratioP1;P2;durP2;ratioP2
51312;SDS011;37397;53.226;10.400;2022-10-16T00:01:08;6.65;;;3.30;;
51312;SDS011;37397;53.226;10.400;2022-10-16T00:03:38;5.85;;;3.65;;
51312;SDS011;37397;53.226;10.400;2022-10-16T00:06:06;6.32;;;3.78;;
51312;SDS011;37397;53.226;10.400;2022-10-16T00:08:34;5.53;;;3.58;;
51312;SDS011;37397;53.226;10.400;2022-10-16T00:11:03;5.90;;;3.38;;
51312;SDS011;37397;53.226;10.400;2022-10-16T00:13:32;6.40;;;3.63;;
51312;SDS011;37397;53.226;10.400;2022-10-16T00:16:01;7.05;;;4.00;;
51312;SDS011;37397;53.226;10.400;2022-10-16T00:18:27;7.40;;;3.63;;
51312;SDS011;37397;53.226;10.400;2022-10-16T00:21:17;5.05;;;3.65;;
51312;SDS011;37397;53.226;10.400;2022-10-16T00:23:44;5.65;;;3.65;;
51312;SDS011;37397;53.226;10.400;2022-10-16T00:26:12;5.75;;;3.67;;
51312;SDS011;37397;53.226;10.400;2022-10-16T00:28:50;5.30;;;3.70;;
51312;SDS011;37397;53.226;10.400;2022-10-16T00:31:18;6.00;;;4.15;;
51312;SDS011;37397;53.226;10.400;2022-10-16T00:33:46;5.40;;;3.80;;
51312;SDS011;37397;53.226;10.400;2022-10-16T00:36:14;7.82;;;3.90;;
51312;SDS011;37397;53.226;10.400;2022-10-16T00:38:44;5.78;;;3.50;;
51312;SDS011;37397;53.226;10.400;2022-10-16T00:41:12;5.30;;;3.60;;
51312;SDS011;37397;53.226;10.400;2022-10-16T00:43:48;5.93;;;3.20;;
51312;SDS011;37397;53.226;10.400;2022-10-16T00:46:20;5.35;;;3.42;;
51312;SDS011;37397;53.226;10.400;2022-10-16T00:48:53;6.07;;;3.47;;
51312;SDS011;37397;53.226;10.400;2022-10-16T00:51:21;5.07;;;3.10;;
51312;SDS011;37397;53.226;10.400;2022-10-16T00:53:54;6.20;;;3.50;;
51312;SDS011;37397;53.226;10.400;2022-10-16T00:56:21;4.43;;;2.85;;
51312;SDS011;37397;53.226;10.400;2022-10-16T00:58:48;7.32;;;3.17;;
51312;SDS011;37397;53.226;10.400;2022-10-16T01:01:15;5.32;;;3.22;;
51312;SDS011;37397;53.226;10.400;2022-10-16T01:03:42;5.03;;;3.33;;
51312;SDS011;37397;53.226;10.400;2022-10-16T01:06:16;5.20;;;3.25;;
51312;SDS011;37397;53.226;10.400;2022-10-16T01:11:34;4.53;;;2.63;;
51312;SDS011;37397;53.226;10.400;2022-10-16T01:14:25;4.95;;;2.85;;
51312;SDS011;37397;53.226;10.400;2022-10-16T01:17:00;5.70;;;3.00;;
51312;SDS011;37397;53.226;10.400;2022-10-16T01:19:38;4.40;;;2.83;;
51312;SDS011;37397;53.226;10.400;2022-10-16T01:22:24;3.95;;;2.50;;
51312;SDS011;37397;53.226;10.400;2022-10-16T01:24:56;4.40;;;2.80;;
51312;SDS011;37397;53.226;10.400;2022-10-16T01:27:31;4.05;;;2.83;;
51312;SDS011;37397;53.226;10.400;2022-10-16T01:30:04;4.38;;;2.63;;
51312;SDS011;37397;53.226;10.400;2022-10-16T01:35:11;4.05;;;2.28;;
51312;SDS011;37397;53.226;10.400;2022-10-16T01:37:46;3.90;;;2.33;;
51312;SDS011;37397;53.226;10.400;2022-10-16T01:40:19;4.70;;;2.60;;
51312;SDS011;37397;53.226;10.400;2022-10-16T01:42:52;5.50;;;2.50;;
51312;SDS011;37397;53.226;10.400;2022-10-16T01:45:30;5.90;;;2.30;;
51312;SDS011;37397;53.226;10.400;2022-10-16T01:47:59;5.63;;;2.50;;
51312;SDS011;37397;53.226;10.400;2022-10-16T01:50:31;4.50;;;2.55;;
51312;SDS011;37397;53.226;10.400;2022-10-16T01:53:00;5.20;;;2.50;;
51312;SDS011;37397;53.226;10.400;2022-10-16T01:55:31;3.80;;;2.10;;
51312;SDS011;37397;53.226;10.400;2022-10-16T01:58:02;4.22;;;2.53;;
51312;SDS011;37397;53.226;10.400;2022-10-16T02:00:33;5.20;;;2.30;;
51312;SDS011;37397;53.226;10.400;2022-10-16T02:03:02;4.35;;;2.47;;
51312;SDS011;37397;53.226;10.400;2022-10-16T02:05:32;4.63;;;2.08;;
51312;SDS011;37397;53.226;10.400;2022-10-16T02:08:04;4.03;;;2.13;;
51312;SDS011;37397;53.226;10.400;2022-10-16T02:10:31;4.68;;;2.28;;
51312;SDS011;37397;53.226;10.400;2022-10-16T02:13:18;4.35;;;2.10;;
51312;SDS011;37397;53.226;10.400;2022-10-16T02:15:50;4.63;;;1.90;;
51312;SDS011;37397;53.226;10.400;2022-10-16T02:18:19;3.83;;;2.35;;
51312;SDS011;37397;53.226;10.400;2022-10-16T02:21:22;4.43;;;2.25;;
51312;SDS011;37397;53.226;10.400;2022-10-16T02:23:47;2.97;;;1.98;;
51312;SDS011;37397;53.226;10.400;2022-10-16T02:26:21;4.40;;;2.30;;
51312;SDS011;37397;53.226;10.400;2022-10-16T02:28:55;3.90;;;2.03;;
51312;SDS011;37397;53.226;10.400;2022-10-16T02:31:31;4.38;;;1.90;;
51312;SDS011;37397;53.226;10.400;2022-10-16T02:34:01;5.47;;;2.00;;
51312;SDS011;37397;53.226;10.400;2022-10-16T02:36:31;3.28;;;1.95;;
51312;SDS011;37397;53.226;10.400;2022-10-16T02:39:00;3.15;;;1.80;;
51312;SDS011;37397;53.226;10.400;2022-10-16T02:41:27;3.72;;;1.88;;
51312;SDS011;37397;53.226;10.400;2022-10-16T02:43:54;3.33;;;1.80;;
51312;SDS011;37397;53.226;10.400;2022-10-16T02:46:21;4.45;;;2.03;;
51312;SDS011;37397;53.226;10.400;2022-10-16T02:48:47;2.47;;;1.77;;
51312;SDS011;37397;53.226;10.400;2022-10-16T02:51:14;4.95;;;1.70;;
51312;SDS011;37397;53.226;10.400;2022-10-16T02:53:41;3.72;;;2.00;;
51312;SDS011;37397;53.226;10.400;2022-10-16T02:56:07;4.05;;;1.80;;
51312;SDS011;37397;53.226;10.400;2022-10-16T02:58:34;2.75;;;1.85;;
51312;SDS011;37397;53.226;10.400;2022-10-16T03:01:01;2.55;;;2.00;;
51312;SDS011;37397;53.226;10.400;2022-10-16T03:03:28;4.60;;;1.63;;
51312;SDS011;37397;53.226;10.400;2022-10-16T03:05:54;4.35;;;2.00;;
51312;SDS011;37397;53.226;10.400;2022-10-16T03:08:21;3.75;;;1.90;;
51312;SDS011;37397;53.226;10.400;2022-10-16T03:10:50;5.95;;;2.13;;
51312;SDS011;37397;53.226;10.400;2022-10-16T03:13:17;5.90;;;2.20;;
51312;SDS011;37397;53.226;10.400;2022-10-16T03:15:46;3.97;;;2.10;;
51312;SDS011;37397;53.226;10.400;2022-10-16T03:18:13;4.60;;;2.20;;
51312;SDS011;37397;53.226;10.400;2022-10-16T03:20:39;3.08;;;1.83;;
51312;SDS011;37397;53.226;10.400;2022-10-16T03:23:06;3.08;;;1.88;;
51312;SDS011;37397;53.226;10.400;2022-10-16T03:25:34;5.53;;;2.10;;
51312;SDS011;37397;53.226;10.400;2022-10-16T03:28:01;3.80;;;2.00;;
51312;SDS011;37397;53.226;10.400;2022-10-16T03:30:28;3.60;;;2.10;;
51312;SDS011;37397;53.226;10.400;2022-10-16T03:32:54;4.85;;;1.70;;
51312;SDS011;37397;53.226;10.400;2022-10-16T03:35:21;2.45;;;1.77;;
51312;SDS011;37397;53.226;10.400;2022-10-16T03:37:49;4.82;;;2.00;;
51312;SDS011;37397;53.226;10.400;2022-10-16T03:40:16;2.92;;;1.58;;
51312;SDS011;37397;53.226;10.400;2022-10-16T03:42:43;4.13;;;1.85;;
51312;SDS011;37397;53.226;10.400;2022-10-16T03:45:10;3.08;;;1.98;;
51312;SDS011;37397;53.226;10.400;2022-10-16T03:47:37;4.93;;;1.65;;
51312;SDS011;37397;53.226;10.400;2022-10-16T03:50:04;2.60;;;1.73;;
51312;SDS011;37397;53.226;10.400;2022-10-16T03:52:31;4.00;;;2.05;;
51312;SDS011;37397;53.226;10.400;2022-10-16T03:54:58;4.57;;;1.90;;
51312;SDS011;37397;53.226;10.400;2022-10-16T03:57:25;5.05;;;2.00;;
51312;SDS011;37397;53.226;10.400;2022-10-16T03:59:52;3.38;;;1.90;;
51312;SDS011;37397;53.226;10.400;2022-10-16T04:02:18;5.30;;;1.70;;
51312;SDS011;37397;53.226;10.400;2022-10-16T04:04:45;4.15;;;1.90;;
51312;SDS011;37397;53.226;10.400;2022-10-16T04:07:11;5.40;;;2.00;;
51312;SDS011;37397;53.226;10.400;2022-10-16T04:09:38;5.00;;;2.10;;
51312;SDS011;37397;53.226;10.400;2022-10-16T04:12:04;3.60;;;1.70;;
51312;SDS011;37397;53.226;10.400;2022-10-16T04:14:31;3.53;;;1.70;;
51312;SDS011;37397;53.226;10.400;2022-10-16T04:16:57;5.13;;;2.35;;
51312;SDS011;37397;53.226;10.400;2022-10-16T04:19:24;3.95;;;1.88;;
51312;SDS011;37397;53.226;10.400;2022-10-16T04:21:51;3.22;;;1.92;;
51312;SDS011;37397;53.226;10.400;2022-10-16T04:24:18;4.88;;;1.85;;
51312;SDS011;37397;53.226;10.400;2022-10-16T04:26:44;5.65;;;1.90;;
51312;SDS011;37397;53.226;10.400;2022-10-16T04:29:11;2.97;;;1.85;;
51312;SDS011;37397;53.226;10.400;2022-10-16T04:31:37;3.38;;;1.60;;
51312;SDS011;37397;53.226;10.400;2022-10-16T04:34:04;6.40;;;2.20;;
51312;SDS011;37397;53.226;10.400;2022-10-16T04:36:30;3.15;;;1.70;;
51312;SDS011;37397;53.226;10.400;2022-10-16T04:38:57;4.93;;;1.85;;
51312;SDS011;37397;53.226;10.400;2022-10-16T04:41:23;6.50;;;2.20;;
51312;SDS011;37397;53.226;10.400;2022-10-16T04:43:50;3.30;;;1.90;;
51312;SDS011;37397;53.226;10.400;2022-10-16T04:46:16;4.60;;;1.83;;
51312;SDS011;37397;53.226;10.400;2022-10-16T04:48:43;5.75;;;2.13;;
51312;SDS011;37397;53.226;10.400;2022-10-16T04:51:09;6.47;;;2.28;;
51312;SDS011;37397;53.226;10.400;2022-10-16T04:53:36;3.78;;;2.10;;
51312;SDS011;37397;53.226;10.400;2022-10-16T04:56:03;7.03;;;2.22;;
51312;SDS011;37397;53.226;10.400;2022-10-16T04:58:30;5.20;;;2.00;;
51312;SDS011;37397;53.226;10.400;2022-10-16T05:00:56;3.90;;;2.13;;
51312;SDS011;37397;53.226;10.400;2022-10-16T05:03:23;4.28;;;2.03;;
51312;SDS011;37397;53.226;10.400;2022-10-16T05:05:49;4.57;;;2.00;;
51312;SDS011;37397;53.226;10.400;2022-10-16T05:08:16;3.67;;;1.85;;
51312;SDS011;37397;53.226;10.400;2022-10-16T05:10:43;4.15;;;1.90;;
51312;SDS011;37397;53.226;10.400;2022-10-16T05:13:10;5.05;;;2.30;;
51312;SDS011;37397;53.226;10.400;2022-10-16T05:15:37;5.07;;;2.13;;
51312;SDS011;37397;53.226;10.400;2022-10-16T05:18:04;6.30;;;2.10;;
51312;SDS011;37397;53.226;10.400;2022-10-16T05:20:31;5.50;;;2.13;;
51312;SDS011;37397;53.226;10.400;2022-10-16T05:22:57;5.07;;;2.35;;
51312;SDS011;37397;53.226;10.400;2022-10-16T05:25:24;6.53;;;2.25;;
51312;SDS011;37397;53.226;10.400;2022-10-16T05:27:51;5.20;;;2.33;;
51312;SDS011;37397;53.226;10.400;2022-10-16T05:30:17;5.53;;;2.22;;
51312;SDS011;37397;53.226;10.400;2022-10-16T05:32:48;6.35;;;2.03;;
51312;SDS011;37397;53.226;10.400;2022-10-16T05:35:16;4.07;;;2.10;;
51312;SDS011;37397;53.226;10.400;2022-10-16T05:37:44;4.13;;;1.98;;
51312;SDS011;37397;53.226;10.400;2022-10-16T05:40:11;5.45;;;2.20;;
51312;SDS011;37397;53.226;10.400;2022-10-16T05:42:39;4.20;;;2.10;;
51312;SDS011;37397;53.226;10.400;2022-10-16T05:45:06;5.25;;;2.30;;
51312;SDS011;37397;53.226;10.400;2022-10-16T05:47:36;4.72;;;2.30;;
51312;SDS011;37397;53.226;10.400;2022-10-16T05:50:02;3.97;;;2.22;;
51312;SDS011;37397;53.226;10.400;2022-10-16T05:52:30;6.53;;;2.35;;
51312;SDS011;37397;53.226;10.400;2022-10-16T05:54:56;4.45;;;2.10;;
51312;SDS011;37397;53.226;10.400;2022-10-16T05:57:23;7.57;;;2.53;;
51312;SDS011;37397;53.226;10.400;2022-10-16T05:59:50;4.45;;;2.38;;
51312;SDS011;37397;53.226;10.400;2022-10-16T06:02:17;4.32;;;2.15;;
51312;SDS011;37397;53.226;10.400;2022-10-16T06:04:43;6.43;;;2.40;;
51312;SDS011;37397;53.226;10.400;2022-10-16T06:07:10;6.78;;;2.22;;
51312;SDS011;37397;53.226;10.400;2022-10-16T06:09:36;4.53;;;2.20;;
51312;SDS011;37397;53.226;10.400;2022-10-16T06:12:03;6.75;;;2.63;;
51312;SDS011;37397;53.226;10.400;2022-10-16T06:14:30;7.47;;;2.42;;
51312;SDS011;37397;53.226;10.400;2022-10-16T06:16:57;5.45;;;2.47;;
51312;SDS011;37397;53.226;10.400;2022-10-16T06:19:23;4.70;;;2.42;;
51312;SDS011;37397;53.226;10.400;2022-10-16T06:21:50;6.57;;;2.22;;
51312;SDS011;37397;53.226;10.400;2022-10-16T06:24:16;6.10;;;2.42;;
51312;SDS011;37397;53.226;10.400;2022-10-16T06:26:43;4.50;;;1.95;;
51312;SDS011;37397;53.226;10.400;2022-10-16T06:29:09;6.80;;;2.28;;
51312;SDS011;37397;53.226;10.400;2022-10-16T06:31:36;4.85;;;2.13;;
51312;SDS011;37397;53.226;10.400;2022-10-16T06:34:03;3.08;;;2.05;;
51312;SDS011;37397;53.226;10.400;2022-10-16T06:36:31;6.55;;;2.10;;
51312;SDS011;37397;53.226;10.400;2022-10-16T06:38:58;7.47;;;2.40;;
51312;SDS011;37397;53.226;10.400;2022-10-16T06:41:24;6.10;;;2.08;;
51312;SDS011;37397;53.226;10.400;2022-10-16T06:43:51;5.20;;;2.30;;
51312;SDS011;37397;53.226;10.400;2022-10-16T06:46:19;4.90;;;2.10;;
51312;SDS011;37397;53.226;10.400;2022-10-16T06:48:48;4.18;;;2.03;;
51312;SDS011;37397;53.226;10.400;2022-10-16T06:51:15;5.07;;;2.05;;
51312;SDS011;37397;53.226;10.400;2022-10-16T06:53:44;5.80;;;1.98;;
51312;SDS011;37397;53.226;10.400;2022-10-16T06:56:29;4.97;;;2.28;;
51312;SDS011;37397;53.226;10.400;2022-10-16T06:58:57;6.60;;;2.40;;
51312;SDS011;37397;53.226;10.400;2022-10-16T07:01:24;3.75;;;2.33;;
51312;SDS011;37397;53.226;10.400;2022-10-16T07:03:52;9.18;;;3.15;;
51312;SDS011;37397;53.226;10.400;2022-10-16T07:06:20;6.05;;;2.42;;
51312;SDS011;37397;53.226;10.400;2022-10-16T07:08:49;9.68;;;2.72;;
51312;SDS011;37397;53.226;10.400;2022-10-16T07:11:20;5.95;;;2.63;;
51312;SDS011;37397;53.226;10.400;2022-10-16T07:13:48;6.80;;;2.75;;
51312;SDS011;37397;53.226;10.400;2022-10-16T07:16:21;8.55;;;3.00;;
51312;SDS011;37397;53.226;10.400;2022-10-16T07:18:55;5.80;;;2.22;;
51312;SDS011;37397;53.226;10.400;2022-10-16T07:21:27;6.05;;;2.40;;
51312;SDS011;37397;53.226;10.400;2022-10-16T07:23:57;6.88;;;2.53;;
51312;SDS011;37397;53.226;10.400;2022-10-16T07:26:25;5.28;;;2.22;;
51312;SDS011;37397;53.226;10.400;2022-10-16T07:28:53;7.88;;;2.80;;
51312;SDS011;37397;53.226;10.400;2022-10-16T07:31:20;9.00;;;2.40;;
51312;SDS011;37397;53.226;10.400;2022-10-16T07:33:47;7.07;;;2.35;;
51312;SDS011;37397;53.226;10.400;2022-10-16T07:36:15;6.80;;;2.35;;
51312;SDS011;37397;53.226;10.400;2022-10-16T07:38:44;7.43;;;2.47;;
51312;SDS011;37397;53.226;10.400;2022-10-16T07:41:13;9.02;;;2.50;;
51312;SDS011;37397;53.226;10.400;2022-10-16T07:43:45;6.95;;;2.58;;
51312;SDS011;37397;53.226;10.400;2022-10-16T07:46:15;5.88;;;2.42;;
51312;SDS011;37397;53.226;10.400;2022-10-16T07:48:43;9.13;;;3.03;;
51312;SDS011;37397;53.226;10.400;2022-10-16T07:51:15;5.70;;;2.25;;
51312;SDS011;37397;53.226;10.400;2022-10-16T07:53:42;4.93;;;2.35;;
51312;SDS011;37397;53.226;10.400;2022-10-16T07:56:09;3.13;;;2.22;;
51312;SDS011;37397;53.226;10.400;2022-10-16T07:58:37;5.90;;;2.30;;
51312;SDS011;37397;53.226;10.400;2022-10-16T08:01:05;4.20;;;2.38;;
51312;SDS011;37397;53.226;10.400;2022-10-16T08:03:33;4.93;;;2.47;;
51312;SDS011;37397;53.226;10.400;2022-10-16T08:06:00;4.68;;;2.38;;
51312;SDS011;37397;53.226;10.400;2022-10-16T08:08:28;4.90;;;2.42;;
51312;SDS011;37397;53.226;10.400;2022-10-16T08:10:54;8.15;;;2.78;;
51312;SDS011;37397;53.226;10.400;2022-10-16T08:13:21;6.63;;;2.72;;
51312;SDS011;37397;53.226;10.400;2022-10-16T08:15:47;4.63;;;2.42;;
51312;SDS011;37397;53.226;10.400;2022-10-16T08:18:14;5.38;;;2.25;;
51312;SDS011;37397;53.226;10.400;2022-10-16T08:20:42;4.55;;;2.53;;
51312;SDS011;37397;53.226;10.400;2022-10-16T08:23:09;7.55;;;2.83;;
51312;SDS011;37397;53.226;10.400;2022-10-16T08:25:37;4.75;;;2.10;;
51312;SDS011;37397;53.226;10.400;2022-10-16T08:28:05;4.47;;;2.40;;
51312;SDS011;37397;53.226;10.400;2022-10-16T08:30:33;5.68;;;2.67;;
51312;SDS011;37397;53.226;10.400;2022-10-16T08:33:00;5.57;;;2.28;;
51312;SDS011;37397;53.226;10.400;2022-10-16T08:35:28;6.25;;;2.17;;
51312;SDS011;37397;53.226;10.400;2022-10-16T08:37:54;4.00;;;2.10;;
51312;SDS011;37397;53.226;10.400;2022-10-16T08:40:25;2.47;;;1.85;;
51312;SDS011;37397;53.226;10.400;2022-10-16T08:48:53;4.53;;;2.13;;
51312;SDS011;37397;53.226;10.400;2022-10-16T08:51:26;5.88;;;2.30;;
51312;SDS011;37397;53.226;10.400;2022-10-16T08:54:08;5.35;;;2.03;;
51312;SDS011;37397;53.226;10.400;2022-10-16T08:56:47;4.22;;;2.10;;
51312;SDS011;37397;53.226;10.400;2022-10-16T08:59:14;5.38;;;2.22;;
51312;SDS011;37397;53.226;10.400;2022-10-16T09:01:44;4.25;;;2.00;;
51312;SDS011;37397;53.226;10.400;2022-10-16T09:04:21;4.90;;;2.00;;
51312;SDS011;37397;53.226;10.400;2022-10-16T09:07:25;5.20;;;1.98;;
51312;SDS011;37397;53.226;10.400;2022-10-16T09:12:45;4.35;;;2.42;;
51312;SDS011;37397;53.226;10.400;2022-10-16T09:15:23;2.92;;;1.85;;
51312;SDS011;37397;53.226;10.400;2022-10-16T09:18:04;2.97;;;1.83;;
51312;SDS011;37397;53.226;10.400;2022-10-16T09:20:49;5.78;;;1.73;;
51312;SDS011;37397;53.226;10.400;2022-10-16T09:23:29;5.22;;;2.05;;
51312;SDS011;37397;53.226;10.400;2022-10-16T09:25:59;2.97;;;1.80;;
51312;SDS011;37397;53.226;10.400;2022-10-16T09:28:26;4.07;;;1.92;;
51312;SDS011;37397;53.226;10.400;2022-10-16T09:30:52;3.72;;;1.90;;
51312;SDS011;37397;53.226;10.400;2022-10-16T09:33:22;5.85;;;2.05;;
51312;SDS011;37397;53.226;10.400;2022-10-16T09:35:53;5.45;;;1.90;;
51312;SDS011;37397;53.226;10.400;2022-10-16T09:38:26;3.58;;;1.60;;
51312;SDS011;37397;53.226;10.400;2022-10-16T09:41:00;5.05;;;1.70;;
51312;SDS011;37397;53.226;10.400;2022-10-16T09:43:34;2.80;;;1.70;;
51312;SDS011;37397;53.226;10.400;2022-10-16T09:46:21;4.55;;;1.85;;
51312;SDS011;37397;53.226;10.400;2022-10-16T09:48:56;3.40;;;1.60;;
51312;SDS011;37397;53.226;10.400;2022-10-16T09:51:30;6.05;;;2.00;;
51312;SDS011;37397;53.226;10.400;2022-10-16T09:56:38;4.45;;;1.70;;
51312;SDS011;37397;53.226;10.400;2022-10-16T09:59:11;4.07;;;1.60;;
51312;SDS011;37397;53.226;10.400;2022-10-16T10:02:12;4.30;;;1.70;;
51312;SDS011;37397;53.226;10.400;2022-10-16T10:04:38;4.93;;;1.50;;
51312;SDS011;37397;53.226;10.400;2022-10-16T10:07:15;6.05;;;1.40;;
51312;SDS011;37397;53.226;10.400;2022-10-16T10:09:45;4.97;;;1.70;;
51312;SDS011;37397;53.226;10.400;2022-10-16T10:12:21;4.30;;;1.48;;
51312;SDS011;37397;53.226;10.400;2022-10-16T10:14:56;7.00;;;1.63;;
51312;SDS011;37397;53.226;10.400;2022-10-16T10:17:24;3.97;;;1.70;;
51312;SDS011;37397;53.226;10.400;2022-10-16T10:19:54;5.35;;;1.73;;
51312;SDS011;37397;53.226;10.400;2022-10-16T10:22:29;5.00;;;1.70;;
51312;SDS011;37397;53.226;10.400;2022-10-16T10:31:01;5.55;;;1.67;;
51312;SDS011;37397;53.226;10.400;2022-10-16T10:33:40;5.00;;;1.40;;
51312;SDS011;37397;53.226;10.400;2022-10-16T10:36:29;5.70;;;1.55;;
51312;SDS011;37397;53.226;10.400;2022-10-16T10:38:57;5.10;;;1.60;;
51312;SDS011;37397;53.226;10.400;2022-10-16T10:41:39;3.95;;;1.55;;
51312;SDS011;37397;53.226;10.400;2022-10-16T10:44:37;9.88;;;1.73;;
51312;SDS011;37397;53.226;10.400;2022-10-16T10:47:27;3.95;;;1.67;;
51312;SDS011;37397;53.226;10.400;2022-10-16T11:03:46;3.72;;;1.25;;
51312;SDS011;37397;53.226;10.400;2022-10-16T11:06:46;3.75;;;1.30;;
51312;SDS011;37397;53.226;10.400;2022-10-16T11:09:22;5.97;;;1.42;;
51312;SDS011;37397;53.226;10.400;2022-10-16T11:12:00;3.75;;;1.20;;
51312;SDS011;37397;53.226;10.400;2022-10-16T11:14:43;3.08;;;1.40;;
51312;SDS011;37397;53.226;10.400;2022-10-16T11:17:25;5.43;;;1.40;;
51312;SDS011;37397;53.226;10.400;2022-10-16T11:22:48;5.18;;;1.40;;
51312;SDS011;37397;53.226;10.400;2022-10-16T11:25:28;2.90;;;1.40;;
51312;SDS011;37397;53.226;10.400;2022-10-16T11:28:16;3.75;;;1.20;;
51312;SDS011;37397;53.226;10.400;2022-10-16T11:31:00;5.93;;;1.98;;
51312;SDS011;37397;53.226;10.400;2022-10-16T11:47:54;3.50;;;1.30;;
51312;SDS011;37397;53.226;10.400;2022-10-16T11:50:34;4.63;;;1.20;;
51312;SDS011;37397;53.226;10.400;2022-10-16T11:56:04;6.25;;;1.48;;
51312;SDS011;37397;53.226;10.400;2022-10-16T11:58:32;6.70;;;1.60;;
51312;SDS011;37397;53.226;10.400;2022-10-16T12:06:37;4.47;;;1.45;;
51312;SDS011;37397;53.226;10.400;2022-10-16T12:09:13;3.53;;;1.48;;
51312;SDS011;37397;53.226;10.400;2022-10-16T12:12:01;5.90;;;1.40;;
51312;SDS011;37397;53.226;10.400;2022-10-16T12:16:58;3.92;;;1.60;;
51312;SDS011;37397;53.226;10.400;2022-10-16T12:19:27;3.65;;;1.52;;
51312;SDS011;37397;53.226;10.400;2022-10-16T12:21:56;7.20;;;1.90;;
51312;SDS011;37397;53.226;10.400;2022-10-16T12:24:35;5.35;;;1.42;;
51312;SDS011;37397;53.226;10.400;2022-10-16T12:27:21;4.05;;;1.70;;
51312;SDS011;37397;53.226;10.400;2022-10-16T12:29:49;3.65;;;1.40;;
51312;SDS011;37397;53.226;10.400;2022-10-16T12:32:43;5.28;;;1.80;;
51312;SDS011;37397;53.226;10.400;2022-10-16T12:35:23;6.53;;;1.60;;
51312;SDS011;37397;53.226;10.400;2022-10-16T12:37:53;5.20;;;1.63;;
51312;SDS011;37397;53.226;10.400;2022-10-16T12:40:31;3.13;;;1.60;;
51312;SDS011;37397;53.226;10.400;2022-10-16T12:43:10;6.00;;;1.60;;
51312;SDS011;37397;53.226;10.400;2022-10-16T12:45:38;6.63;;;1.70;;
51312;SDS011;37397;53.226;10.400;2022-10-16T12:48:18;5.97;;;1.88;;
51312;SDS011;37397;53.226;10.400;2022-10-16T12:50:48;4.13;;;1.65;;
51312;SDS011;37397;53.226;10.400;2022-10-16T12:53:21;3.83;;;1.50;;
51312;SDS011;37397;53.226;10.400;2022-10-16T12:58:47;4.80;;;1.70;;
51312;SDS011;37397;53.226;10.400;2022-10-16T13:01:51;4.40;;;1.70;;
51312;SDS011;37397;53.226;10.400;2022-10-16T13:18:19;2.97;;;1.85;;
51312;SDS011;37397;53.226;10.400;2022-10-16T13:29:09;3.75;;;1.67;;
51312;SDS011;37397;53.226;10.400;2022-10-16T13:31:37;5.45;;;1.60;;
51312;SDS011;37397;53.226;10.400;2022-10-16T13:34:05;4.70;;;1.60;;
51312;SDS011;37397;53.226;10.400;2022-10-16T13:36:46;3.75;;;1.40;;
51312;SDS011;37397;53.226;10.400;2022-10-16T13:39:23;6.07;;;2.00;;
51312;SDS011;37397;53.226;10.400;2022-10-16T13:42:05;5.55;;;1.60;;
51312;SDS011;37397;53.226;10.400;2022-10-16T13:47:10;10.50;;;3.95;;
51312;SDS011;37397;53.226;10.400;2022-10-16T13:49:42;11.35;;;3.20;;
51312;SDS011;37397;53.226;10.400;2022-10-16T13:52:19;10.15;;;2.92;;
51312;SDS011;37397;53.226;10.400;2022-10-16T13:54:47;8.40;;;2.60;;
51312;SDS011;37397;53.226;10.400;2022-10-16T13:57:14;8.07;;;2.28;;
51312;SDS011;37397;53.226;10.400;2022-10-16T13:59:52;8.68;;;2.13;;
51312;SDS011;37397;53.226;10.400;2022-10-16T14:02:22;9.50;;;2.13;;
51312;SDS011;37397;53.226;10.400;2022-10-16T14:04:53;4.35;;;1.80;;
51312;SDS011;37397;53.226;10.400;2022-10-16T14:07:23;8.82;;;2.20;;
51312;SDS011;37397;53.226;10.400;2022-10-16T14:09:53;8.63;;;1.90;;
51312;SDS011;37397;53.226;10.400;2022-10-16T14:12:20;3.90;;;1.70;;
51312;SDS011;37397;53.226;10.400;2022-10-16T14:14:53;2.50;;;1.40;;
51312;SDS011;37397;53.226;10.400;2022-10-16T14:17:25;7.10;;;1.80;;
51312;SDS011;37397;53.226;10.400;2022-10-16T14:20:03;5.43;;;2.03;;
51312;SDS011;37397;53.226;10.400;2022-10-16T14:22:34;5.45;;;1.90;;
51312;SDS011;37397;53.226;10.400;2022-10-16T14:27:55;5.38;;;1.75;;
51312;SDS011;37397;53.226;10.400;2022-10-16T14:30:34;3.03;;;1.30;;
51312;SDS011;37397;53.226;10.400;2022-10-16T14:33:03;5.55;;;1.58;;
51312;SDS011;37397;53.226;10.400;2022-10-16T14:35:36;4.70;;;1.67;;
51312;SDS011;37397;53.226;10.400;2022-10-16T14:38:05;6.95;;;2.05;;
51312;SDS011;37397;53.226;10.400;2022-10-16T14:40:46;4.47;;;1.60;;
51312;SDS011;37397;53.226;10.400;2022-10-16T14:43:15;6.38;;;1.67;;
51312;SDS011;37397;53.226;10.400;2022-10-16T14:45:50;3.65;;;1.70;;
51312;SDS011;37397;53.226;10.400;2022-10-16T14:48:19;4.10;;;1.52;;
51312;SDS011;37397;53.226;10.400;2022-10-16T14:50:46;7.07;;;1.98;;
51312;SDS011;37397;53.226;10.400;2022-10-16T14:53:13;4.38;;;1.67;;
51312;SDS011;37397;53.226;10.400;2022-10-16T14:55:40;5.25;;;1.67;;
51312;SDS011;37397;53.226;10.400;2022-10-16T14:58:15;5.25;;;1.45;;
51312;SDS011;37397;53.226;10.400;2022-10-16T15:00:44;6.35;;;1.83;;
51312;SDS011;37397;53.226;10.400;2022-10-16T15:03:11;5.43;;;1.80;;
51312;SDS011;37397;53.226;10.400;2022-10-16T15:05:37;5.25;;;1.48;;
51312;SDS011;37397;53.226;10.400;2022-10-16T15:08:04;5.82;;;1.48;;
51312;SDS011;37397;53.226;10.400;2022-10-16T15:10:31;6.57;;;1.80;;
51312;SDS011;37397;53.226;10.400;2022-10-16T15:13:02;5.70;;;1.38;;
51312;SDS011;37397;53.226;10.400;2022-10-16T15:15:35;3.72;;;1.40;;
51312;SDS011;37397;53.226;10.400;2022-10-16T15:18:04;4.35;;;1.40;;
51312;SDS011;37397;53.226;10.400;2022-10-16T15:20:32;4.30;;;1.63;;
51312;SDS011;37397;53.226;10.400;2022-10-16T15:23:15;7.32;;;1.90;;
51312;SDS011;37397;53.226;10.400;2022-10-16T15:25:56;5.55;;;1.77;;
51312;SDS011;37397;53.226;10.400;2022-10-16T15:28:23;10.68;;;2.10;;
51312;SDS011;37397;53.226;10.400;2022-10-16T15:30:52;5.25;;;1.63;;
51312;SDS011;37397;53.226;10.400;2022-10-16T15:33:22;4.88;;;1.73;;
51312;SDS011;37397;53.226;10.400;2022-10-16T15:35:51;5.47;;;1.80;;
51312;SDS011;37397;53.226;10.400;2022-10-16T15:38:19;3.28;;;1.27;;
51312;SDS011;37397;53.226;10.400;2022-10-16T15:40:47;4.97;;;1.48;;
51312;SDS011;37397;53.226;10.400;2022-10-16T15:43:15;2.78;;;1.30;;
51312;SDS011;37397;53.226;10.400;2022-10-16T15:45:42;8.10;;;1.70;;
51312;SDS011;37397;53.226;10.400;2022-10-16T15:48:12;6.32;;;1.45;;
51312;SDS011;37397;53.226;10.400;2022-10-16T15:50:42;5.88;;;1.55;;
51312;SDS011;37397;53.226;10.400;2022-10-16T15:53:09;7.53;;;1.65;;
51312;SDS011;37397;53.226;10.400;2022-10-16T15:55:36;3.58;;;1.58;;
51312;SDS011;37397;53.226;10.400;2022-10-16T15:58:04;4.35;;;1.60;;
51312;SDS011;37397;53.226;10.400;2022-10-16T16:00:31;4.30;;;1.70;;
51312;SDS011;37397;53.226;10.400;2022-10-16T16:02:58;4.75;;;1.70;;
51312;SDS011;37397;53.226;10.400;2022-10-16T16:05:25;5.53;;;1.40;;
51312;SDS011;37397;53.226;10.400;2022-10-16T16:07:51;7.57;;;1.67;;
51312;SDS011;37397;53.226;10.400;2022-10-16T16:10:18;4.53;;;1.63;;
51312;SDS011;37397;53.226;10.400;2022-10-16T16:12:47;7.13;;;1.60;;
51312;SDS011;37397;53.226;10.400;2022-10-16T16:15:20;4.15;;;1.17;;
51312;SDS011;37397;53.226;10.400;2022-10-16T16:17:48;2.88;;;1.45;;
51312;SDS011;37397;53.226;10.400;2022-10-16T16:20:15;5.47;;;1.50;;
51312;SDS011;37397;53.226;10.400;2022-10-16T16:22:42;4.72;;;1.67;;
51312;SDS011;37397;53.226;10.400;2022-10-16T16:25:08;5.18;;;1.50;;
51312;SDS011;37397;53.226;10.400;2022-10-16T16:27:35;2.42;;;1.33;;
51312;SDS011;37397;53.226;10.400;2022-10-16T16:30:05;5.30;;;1.60;;